Ana Sayfa
METAR-TAF:

METAR-TAF

Havaalanları :

Luksor, Mısır

Enlem: 25-40N, Boylam: 032-42E, yükseklik: 93 m

Güncel hava durumu gözlemi

Rapor saat 22:00 UTC de 1 saat ve 21 dakika önce yapıldı.
Rüzgar güney/güneydoğudan 4 kt
Sıcaklık 29°C
Nem 37%
Basınç 1008 hPa
Görüş mesafesi 10 km veya daha fazla
1500 m altında bulut yok ve kümülonimbus yok

METAR: HELX 262200Z 15004KT CAVOK 29/13 Q1008 NOSIG

Saat: 01:21 (23:21 UTC)

Tahmin

Rapor saat 17:00 UTC de 6 saat ve 21 dakika önce yapıldı.
Ayın 26'si saat 18 UTC'den ayın 27'si saat 24 UTC'ye kadar geçerli Tahmin
Rüzgar kuzey/kuzeybatıdan 8 kt
Görüş mesafesi 10 km veya daha fazla
1500 m altında bulut yok ve kümülonimbus yok

TAF: HELX 261700Z 2618/2724 33008KT CAVOK

4.000'den fazla havaalanı için hava durumu gözlemleri ve tahminleri (METAR ve TAF raporları).

Kullanılabilir istasyonlar harita üzerinde sarı ve kırmızı noktalarla gösterilir.

İstasyonun adını görmek için fareyi noktanın üzerinde gezdirin.

Sonrasında hava gözlem ve tahminlerini görmek için tıklayın.

Haritayı değiştirmek için: yaklaştırmak için siyah artı işaretli yeşil düğmeye ve uzaklaştırmak için de eksi işaretli düğmeye hızla tıklayın; bitişik haritalar için yeşil okları kullanın.


METAR-TAF: